Time;durP1;ratioP1;P1;durP2;ratioP2;P2;SDS_P1;SDS_P2;PMS_P1;PMS_P2;Temp;Humidity;BMP_temperature;BMP_pressure;BME280_temperature;BME280_humidity;BME280_pressure;Samples;Min_cycle;Max_cycle;Signal;HPM_P1;HPM_P2
2023/08/31 00:02:24;;;;;;;4.05;1.90;;;;;;;;;;5014669;28;20080;-77
2023/08/31 00:04:53;;;;;;;3.88;2.00;;;;;;;;;;5014341;28;20401;-77
2023/08/31 00:07:20;;;;;;;5.05;1.80;;;;;;;;;;5011949;28;20076;-76
2023/08/31 00:09:46;;;;;;;4.97;2.13;;;;;;;;;;5031074;28;20029;-78
2023/08/31 00:12:15;;;;;;;3.75;2.17;;;;;;;;;;5015244;28;20083;-77
2023/08/31 00:14:41;;;;;;;3.92;2.00;;;;;;;;;;5014793;28;20061;-77
2023/08/31 00:17:07;;;;;;;7.03;2.35;;;;;;;;;;5015261;28;20375;-77
2023/08/31 00:19:33;;;;;;;4.95;2.05;;;;;;;;;;5014596;28;20060;-77
2023/08/31 00:22:00;;;;;;;5.55;2.10;;;;;;;;;;5032636;28;20092;-77
2023/08/31 00:24:31;;;;;;;4.70;2.20;;;;;;;;;;5012863;28;20057;-77
2023/08/31 00:26:57;;;;;;;6.50;2.70;;;;;;;;;;5008701;28;20046;-77
2023/08/31 00:29:25;;;;;;;6.00;2.67;;;;;;;;;;4996374;28;20100;-77
2023/08/31 00:31:53;;;;;;;7.32;2.90;;;;;;;;;;5030766;28;20045;-77
2023/08/31 00:34:19;;;;;;;6.25;2.90;;;;;;;;;;5010482;28;20056;-77
2023/08/31 00:36:45;;;;;;;6.35;3.05;;;;;;;;;;5032090;28;20516;-77
2023/08/31 00:39:11;;;;;;;6.28;3.08;;;;;;;;;;5031968;28;20076;-76
2023/08/31 00:41:37;;;;;;;6.47;3.22;;;;;;;;;;5032204;28;20041;-76
2023/08/31 00:44:04;;;;;;;6.55;3.25;;;;;;;;;;5030743;28;20089;-76
2023/08/31 00:46:35;;;;;;;4.45;3.13;;;;;;;;;;5014412;28;20059;-76
2023/08/31 00:49:03;;;;;;;5.88;3.30;;;;;;;;;;5031760;28;20057;-76
2023/08/31 00:51:29;;;;;;;7.15;3.20;;;;;;;;;;5014497;28;20053;-76
2023/08/31 00:53:58;;;;;;;5.55;3.30;;;;;;;;;;5013806;28;20115;-76
2023/08/31 00:56:24;;;;;;;7.10;3.15;;;;;;;;;;5014041;28;20050;-76
2023/08/31 00:58:50;;;;;;;6.38;3.17;;;;;;;;;;5031225;28;20053;-76
2023/08/31 01:01:37;;;;;;;7.18;3.30;;;;;;;;;;5031675;28;20406;-76
2023/08/31 01:04:07;;;;;;;6.43;3.28;;;;;;;;;;5031208;28;20446;-76
2023/08/31 01:06:40;;;;;;;7.25;3.45;;;;;;;;;;5012907;28;20053;-77
2023/08/31 01:09:08;;;;;;;6.22;3.05;;;;;;;;;;5031420;28;20527;-76
2023/08/31 01:11:40;;;;;;;6.72;3.28;;;;;;;;;;4998033;28;20046;-76
2023/08/31 01:14:12;;;;;;;7.90;3.08;;;;;;;;;;5030958;28;20053;-76
2023/08/31 01:16:39;;;;;;;7.43;2.97;;;;;;;;;;5015726;28;20398;-77
2023/08/31 01:19:09;;;;;;;8.23;2.97;;;;;;;;;;5035313;28;20053;-76
2023/08/31 01:21:38;;;;;;;5.13;2.70;;;;;;;;;;5017737;28;20046;-76
2023/08/31 01:24:04;;;;;;;5.75;2.88;;;;;;;;;;5017311;28;20540;-76
2023/08/31 01:26:30;;;;;;;5.68;2.92;;;;;;;;;;5032983;28;20358;-77
2023/08/31 01:28:56;;;;;;;5.82;2.60;;;;;;;;;;5014672;28;20507;-76
2023/08/31 01:31:23;;;;;;;6.18;2.85;;;;;;;;;;5009028;28;20143;-77
2023/08/31 01:33:49;;;;;;;9.18;3.03;;;;;;;;;;5034906;28;20162;-76
2023/08/31 01:36:21;;;;;;;7.03;2.63;;;;;;;;;;5001399;28;20045;-77
2023/08/31 01:38:51;;;;;;;5.70;2.70;;;;;;;;;;5017450;28;20521;-77
2023/08/31 01:41:18;;;;;;;9.05;2.90;;;;;;;;;;5035057;28;20128;-77
2023/08/31 01:43:44;;;;;;;4.50;2.67;;;;;;;;;;5033429;28;20053;-77
2023/08/31 01:46:10;;;;;;;5.30;2.22;;;;;;;;;;5016898;28;20397;-77
2023/08/31 01:48:40;;;;;;;7.05;2.55;;;;;;;;;;5034536;28;20061;-77
2023/08/31 01:51:07;;;;;;;5.72;2.30;;;;;;;;;;5017608;28;20136;-77
2023/08/31 01:53:34;;;;;;;5.90;2.70;;;;;;;;;;5016621;28;20056;-77
2023/08/31 01:56:00;;;;;;;5.63;2.47;;;;;;;;;;5034161;28;20069;-76
2023/08/31 01:58:26;;;;;;;5.45;2.40;;;;;;;;;;5034354;28;20052;-76
2023/08/31 02:00:52;;;;;;;4.63;2.30;;;;;;;;;;5015788;28;20049;-76
2023/08/31 02:03:18;;;;;;;5.38;2.30;;;;;;;;;;5014775;28;20045;-76
2023/08/31 02:05:44;;;;;;;3.63;2.20;;;;;;;;;;5016561;28;20045;-76
2023/08/31 02:08:10;;;;;;;4.95;2.20;;;;;;;;;;5016004;28;20045;-76
2023/08/31 02:10:36;;;;;;;5.03;2.17;;;;;;;;;;5033988;28;20045;-76
2023/08/31 02:13:02;;;;;;;8.18;2.42;;;;;;;;;;5016119;28;20398;-76
2023/08/31 02:15:29;;;;;;;5.05;2.30;;;;;;;;;;5034256;28;20165;-77
2023/08/31 02:17:55;;;;;;;4.07;2.10;;;;;;;;;;5016393;28;20130;-76
2023/08/31 02:20:21;;;;;;;4.03;2.03;;;;;;;;;;5016540;28;20512;-76
2023/08/31 02:22:49;;;;;;;4.18;1.90;;;;;;;;;;5034122;28;20042;-77
2023/08/31 02:25:16;;;;;;;4.03;2.17;;;;;;;;;;5033947;28;20129;-76
2023/08/31 02:27:42;;;;;;;4.22;2.20;;;;;;;;;;5020445;28;20120;-76
2023/08/31 02:30:08;;;;;;;5.63;2.00;;;;;;;;;;5015079;28;20078;-76
2023/08/31 02:32:35;;;;;;;4.90;2.00;;;;;;;;;;5034239;28;20049;-76
2023/08/31 02:35:02;;;;;;;5.03;2.05;;;;;;;;;;5033753;28;20398;-76
2023/08/31 02:37:28;;;;;;;5.18;2.08;;;;;;;;;;5033844;28;20095;-76
2023/08/31 02:39:54;;;;;;;6.00;2.10;;;;;;;;;;5033645;28;20081;-76
2023/08/31 02:42:20;;;;;;;3.97;1.80;;;;;;;;;;5033485;28;20080;-76
2023/08/31 02:44:46;;;;;;;3.45;1.70;;;;;;;;;;5015702;28;20045;-76
2023/08/31 02:47:12;;;;;;;5.13;2.05;;;;;;;;;;5033520;28;20052;-76
2023/08/31 02:49:39;;;;;;;4.80;1.70;;;;;;;;;;5033497;28;20049;-76
2023/08/31 02:52:05;;;;;;;3.53;1.88;;;;;;;;;;5033687;28;20041;-76
2023/08/31 02:54:31;;;;;;;3.80;1.90;;;;;;;;;;5032909;28;20374;-76
2023/08/31 02:56:57;;;;;;;4.70;1.85;;;;;;;;;;5033590;28;20037;-77
2023/08/31 02:59:24;;;;;;;5.07;1.88;;;;;;;;;;5032586;28;20420;-77
2023/08/31 03:01:50;;;;;;;3.50;1.73;;;;;;;;;;5015227;28;20478;-77
2023/08/31 03:04:19;;;;;;;5.75;1.80;;;;;;;;;;5015384;28;20053;-77
2023/08/31 03:06:45;;;;;;;4.32;1.63;;;;;;;;;;5033717;28;20402;-77
2023/08/31 03:09:13;;;;;;;5.43;2.22;;;;;;;;;;5032485;28;20053;-77
2023/08/31 03:11:39;;;;;;;3.78;1.55;;;;;;;;;;5031828;28;20377;-77
2023/08/31 03:14:05;;;;;;;4.30;1.60;;;;;;;;;;5032964;28;20041;-77
2023/08/31 03:16:31;;;;;;;4.63;1.67;;;;;;;;;;5018457;28;20105;-76
2023/08/31 03:18:57;;;;;;;3.25;1.67;;;;;;;;;;5037642;28;20068;-76
2023/08/31 03:21:23;;;;;;;5.18;1.67;;;;;;;;;;5015480;28;20049;-76
2023/08/31 03:23:49;;;;;;;4.60;1.58;;;;;;;;;;5032021;28;20041;-77
2023/08/31 03:26:15;;;;;;;4.22;1.70;;;;;;;;;;4999481;28;20418;-76
2023/08/31 03:28:41;;;;;;;5.30;1.70;;;;;;;;;;5032641;28;20080;-77
2023/08/31 03:31:07;;;;;;;4.57;1.70;;;;;;;;;;5014858;28;20105;-77
2023/08/31 03:33:33;;;;;;;4.00;1.70;;;;;;;;;;5031750;28;20188;-77
2023/08/31 03:36:04;;;;;;;4.53;1.65;;;;;;;;;;5033452;28;20049;-76
2023/08/31 03:38:31;;;;;;;4.05;1.70;;;;;;;;;;5032400;28;20049;-76
2023/08/31 03:40:57;;;;;;;4.35;1.60;;;;;;;;;;5032339;28;20501;-76
2023/08/31 03:43:23;;;;;;;3.85;1.60;;;;;;;;;;5032375;28;20402;-76
2023/08/31 03:45:49;;;;;;;5.28;1.60;;;;;;;;;;5011923;28;20053;-76
2023/08/31 03:48:15;;;;;;;3.47;1.65;;;;;;;;;;5014342;28;20042;-76
2023/08/31 03:50:41;;;;;;;6.03;1.73;;;;;;;;;;5032390;28;20203;-76
2023/08/31 03:53:08;;;;;;;4.57;1.80;;;;;;;;;;5031754;28;20179;-75
2023/08/31 03:55:37;;;;;;;5.38;1.73;;;;;;;;;;5014557;28;20049;-76
2023/08/31 03:58:03;;;;;;;7.05;2.00;;;;;;;;;;5032224;28;20042;-76
2023/08/31 04:00:29;;;;;;;3.28;1.80;;;;;;;;;;5032002;28;20045;-76
2023/08/31 04:02:55;;;;;;;3.70;1.80;;;;;;;;;;5032262;28;20042;-76
2023/08/31 04:05:21;;;;;;;5.20;1.80;;;;;;;;;;5031892;28;20068;-77
2023/08/31 04:07:47;;;;;;;5.80;2.00;;;;;;;;;;5032108;28;20120;-77
2023/08/31 04:10:13;;;;;;;4.40;2.10;;;;;;;;;;5014264;28;20049;-76
2023/08/31 04:12:40;;;;;;;5.43;2.00;;;;;;;;;;5013805;28;20514;-77
2023/08/31 04:15:06;;;;;;;4.88;1.85;;;;;;;;;;5031847;28;20072;-76
2023/08/31 04:17:32;;;;;;;4.65;1.80;;;;;;;;;;5032513;28;20173;-76
2023/08/31 04:19:58;;;;;;;5.78;2.15;;;;;;;;;;5032428;28;20053;-76
2023/08/31 04:22:26;;;;;;;6.35;1.92;;;;;;;;;;5015078;28;20060;-76
2023/08/31 04:24:52;;;;;;;4.90;1.90;;;;;;;;;;5032177;28;20332;-76
2023/08/31 04:27:18;;;;;;;4.75;2.20;;;;;;;;;;5005419;28;20060;-76
2023/08/31 04:29:44;;;;;;;5.60;2.20;;;;;;;;;;4996064;28;20046;-76
2023/08/31 04:32:10;;;;;;;5.82;2.00;;;;;;;;;;5032455;28;20045;-77
2023/08/31 04:34:36;;;;;;;3.60;2.45;;;;;;;;;;5014035;28;20053;-76
2023/08/31 04:37:02;;;;;;;5.75;2.28;;;;;;;;;;5020838;28;20085;-77
2023/08/31 04:39:28;;;;;;;4.53;2.10;;;;;;;;;;4992712;28;20049;-76
2023/08/31 04:41:54;;;;;;;4.93;2.13;;;;;;;;;;5010054;28;20053;-77
2023/08/31 04:44:20;;;;;;;4.72;2.30;;;;;;;;;;5011789;28;20474;-76
2023/08/31 04:46:46;;;;;;;5.07;2.00;;;;;;;;;;5031758;28;20092;-77
2023/08/31 04:49:12;;;;;;;7.05;2.78;;;;;;;;;;5013874;28;20053;-77
2023/08/31 04:51:39;;;;;;;6.53;2.25;;;;;;;;;;5033769;28;20053;-77
2023/08/31 04:54:05;;;;;;;5.88;2.60;;;;;;;;;;5034903;28;20049;-77
2023/08/31 04:56:33;;;;;;;5.43;2.42;;;;;;;;;;5035968;28;20041;-77
2023/08/31 04:58:59;;;;;;;4.97;2.47;;;;;;;;;;5017121;28;20179;-77
2023/08/31 05:01:25;;;;;;;8.98;2.60;;;;;;;;;;5017777;28;20052;-77
2023/08/31 05:03:51;;;;;;;11.10;2.70;;;;;;;;;;5034477;28;20514;-77
2023/08/31 05:06:17;;;;;;;6.50;2.67;;;;;;;;;;5034993;28;20104;-77
2023/08/31 05:08:43;;;;;;;4.95;2.53;;;;;;;;;;5035098;28;20048;-77
2023/08/31 05:11:09;;;;;;;5.70;2.67;;;;;;;;;;5035058;28;20041;-77
2023/08/31 05:13:37;;;;;;;7.20;2.70;;;;;;;;;;5016157;28;20129;-77
2023/08/31 05:16:03;;;;;;;9.45;3.15;;;;;;;;;;5017981;28;20148;-77
2023/08/31 05:18:29;;;;;;;6.85;2.95;;;;;;;;;;5035634;28;20057;-77
2023/08/31 05:20:55;;;;;;;9.23;3.20;;;;;;;;;;5035369;28;20352;-77
2023/08/31 05:23:21;;;;;;;5.63;3.00;;;;;;;;;;5015498;28;20045;-77
2023/08/31 05:25:47;;;;;;;6.00;3.10;;;;;;;;;;5017160;28;20277;-77
2023/08/31 05:28:14;;;;;;;7.45;3.50;;;;;;;;;;5017034;28;20044;-77
2023/08/31 05:30:50;;;;;;;8.52;3.05;;;;;;;;;;5001159;28;20060;-77
2023/08/31 05:33:16;;;;;;;7.22;2.83;;;;;;;;;;5000724;28;20045;-77
2023/08/31 05:35:43;;;;;;;6.35;3.25;;;;;;;;;;5015085;28;20046;-77
2023/08/31 05:38:09;;;;;;;6.13;3.17;;;;;;;;;;5034777;28;20124;-77
2023/08/31 05:40:35;;;;;;;7.30;2.90;;;;;;;;;;5034866;28;20050;-77
2023/08/31 05:43:01;;;;;;;7.82;3.00;;;;;;;;;;5034403;28;20132;-77
2023/08/31 05:45:27;;;;;;;6.28;2.92;;;;;;;;;;5015825;28;20076;-77
2023/08/31 05:47:53;;;;;;;11.07;3.20;;;;;;;;;;5015325;28;20073;-77
2023/08/31 05:50:19;;;;;;;4.63;2.60;;;;;;;;;;5017053;28;20053;-77
2023/08/31 05:52:45;;;;;;;5.60;2.83;;;;;;;;;;5015843;28;20552;-78
2023/08/31 05:55:11;;;;;;;5.22;2.80;;;;;;;;;;5034026;28;20053;-77
2023/08/31 05:57:37;;;;;;;6.10;2.80;;;;;;;;;;5033807;28;20038;-77
2023/08/31 06:00:04;;;;;;;7.60;2.85;;;;;;;;;;5033917;28;20053;-77
2023/08/31 06:02:30;;;;;;;6.22;2.65;;;;;;;;;;5033844;28;20444;-77
2023/08/31 06:04:56;;;;;;;6.00;2.65;;;;;;;;;;5034146;28;20350;-77
2023/08/31 06:07:23;;;;;;;6.35;2.50;;;;;;;;;;5014963;28;20042;-77
2023/08/31 06:09:49;;;;;;;8.00;2.90;;;;;;;;;;5033756;28;20037;-77
2023/08/31 06:12:15;;;;;;;10.00;3.28;;;;;;;;;;5016039;28;20065;-77
2023/08/31 06:14:41;;;;;;;5.28;2.70;;;;;;;;;;5033727;28;20045;-77
2023/08/31 06:17:08;;;;;;;7.45;2.80;;;;;;;;;;5000320;28;20045;-76
2023/08/31 06:19:36;;;;;;;5.55;2.50;;;;;;;;;;5033509;28;20045;-77
2023/08/31 06:22:03;;;;;;;6.22;2.30;;;;;;;;;;5016076;28;20071;-76
2023/08/31 06:24:29;;;;;;;6.30;2.33;;;;;;;;;;5033276;28;20045;-77
2023/08/31 06:26:56;;;;;;;5.95;2.20;;;;;;;;;;5010848;28;20478;-77
2023/08/31 06:29:22;;;;;;;6.35;2.30;;;;;;;;;;5012865;28;20511;-76
2023/08/31 06:31:48;;;;;;;10.55;2.40;;;;;;;;;;5013694;28;20049;-76
2023/08/31 06:34:14;;;;;;;5.32;2.22;;;;;;;;;;4998542;28;20061;-76
2023/08/31 06:36:40;;;;;;;7.47;2.30;;;;;;;;;;5005127;28;20101;-75
2023/08/31 06:39:07;;;;;;;8.05;2.22;;;;;;;;;;5005223;28;20045;-76
2023/08/31 06:41:33;;;;;;;7.50;2.33;;;;;;;;;;5014482;28;20815;-76
2023/08/31 06:43:59;;;;;;;6.47;2.15;;;;;;;;;;5013862;28;20053;-76
2023/08/31 06:46:25;;;;;;;5.35;2.15;;;;;;;;;;5033567;28;20038;-77
2023/08/31 06:48:52;;;;;;;9.00;2.58;;;;;;;;;;5016101;28;20091;-77
2023/08/31 06:51:18;;;;;;;6.65;2.10;;;;;;;;;;5015956;28;20073;-77
2023/08/31 06:53:44;;;;;;;6.43;1.90;;;;;;;;;;5032770;28;20371;-77
2023/08/31 06:56:10;;;;;;;7.38;2.00;;;;;;;;;;5015837;28;20045;-77
2023/08/31 06:58:36;;;;;;;6.68;2.00;;;;;;;;;;5032974;28;20057;-77
2023/08/31 07:01:06;;;;;;;5.70;1.80;;;;;;;;;;5015845;28;20063;-77
2023/08/31 07:03:32;;;;;;;6.18;1.90;;;;;;;;;;5015390;28;20045;-77
2023/08/31 07:05:58;;;;;;;5.18;1.88;;;;;;;;;;5031847;28;20088;-77
2023/08/31 07:08:24;;;;;;;5.13;1.75;;;;;;;;;;5030687;28;20048;-77
2023/08/31 07:10:50;;;;;;;4.97;1.55;;;;;;;;;;4997086;28;20143;-77
2023/08/31 07:13:16;;;;;;;4.80;1.90;;;;;;;;;;5013965;28;20458;-77
2023/08/31 07:15:43;;;;;;;5.55;1.67;;;;;;;;;;4998405;28;20053;-77
2023/08/31 07:18:09;;;;;;;4.93;1.73;;;;;;;;;;5033175;28;20394;-77
2023/08/31 07:20:35;;;;;;;6.10;1.80;;;;;;;;;;5033303;28;20048;-77
2023/08/31 07:23:01;;;;;;;5.47;1.60;;;;;;;;;;5015473;28;20041;-78
2023/08/31 07:25:28;;;;;;;5.10;1.75;;;;;;;;;;5032470;28;20385;-78
2023/08/31 07:27:54;;;;;;;5.28;1.85;;;;;;;;;;5014712;28;20046;-78
2023/08/31 07:30:21;;;;;;;9.02;1.73;;;;;;;;;;5031370;28;20049;-78
2023/08/31 07:32:47;;;;;;;5.50;1.48;;;;;;;;;;5032040;28;20083;-78
2023/08/31 07:35:13;;;;;;;6.88;1.60;;;;;;;;;;5032186;28;20118;-77
2023/08/31 07:37:39;;;;;;;6.82;1.60;;;;;;;;;;5032749;28;20037;-77
2023/08/31 07:40:09;;;;;;;3.72;1.33;;;;;;;;;;5032588;28;20478;-77
2023/08/31 07:42:36;;;;;;;4.55;1.60;;;;;;;;;;5015092;28;20390;-77
2023/08/31 07:45:02;;;;;;;2.97;1.30;;;;;;;;;;5031879;28;20041;-78
2023/08/31 07:47:28;;;;;;;3.05;1.30;;;;;;;;;;5032627;28;20049;-77
2023/08/31 07:49:54;;;;;;;4.55;1.60;;;;;;;;;;4997662;28;20435;-77
2023/08/31 07:52:20;;;;;;;5.25;1.40;;;;;;;;;;4977671;28;20045;-77
2023/08/31 07:54:46;;;;;;;3.67;1.38;;;;;;;;;;5010208;28;20046;-77
2023/08/31 07:57:12;;;;;;;3.80;1.70;;;;;;;;;;4992938;28;20049;-77
2023/08/31 07:59:40;;;;;;;4.70;1.60;;;;;;;;;;5015298;28;20045;-77
2023/08/31 08:02:06;;;;;;;8.05;1.40;;;;;;;;;;5032664;28;20431;-77
2023/08/31 08:04:32;;;;;;;5.97;1.60;;;;;;;;;;5031395;28;20061;-77
2023/08/31 08:06:58;;;;;;;4.78;1.45;;;;;;;;;;5014679;28;20445;-76
2023/08/31 08:09:25;;;;;;;4.22;1.50;;;;;;;;;;5014799;28;20050;-78
2023/08/31 08:11:51;;;;;;;5.80;1.63;;;;;;;;;;5031999;28;20074;-80
2023/08/31 08:14:17;;;;;;;4.15;1.40;;;;;;;;;;4997776;28;20053;-75
2023/08/31 08:16:43;;;;;;;3.13;1.50;;;;;;;;;;5030785;28;20056;-75
2023/08/31 08:19:09;;;;;;;5.82;1.85;;;;;;;;;;5031174;28;20410;-77
2023/08/31 08:21:35;;;;;;;4.00;1.40;;;;;;;;;;5032458;28;20488;-76
2023/08/31 08:24:01;;;;;;;5.88;1.40;;;;;;;;;;5031709;28;20050;-77
2023/08/31 08:26:28;;;;;;;5.97;1.30;;;;;;;;;;5034191;28;20052;-77
2023/08/31 08:28:54;;;;;;;3.25;1.40;;;;;;;;;;5035548;28;20042;-77
2023/08/31 08:31:20;;;;;;;2.22;1.20;;;;;;;;;;5035618;28;20049;-78
2023/08/31 08:33:46;;;;;;;4.07;1.50;;;;;;;;;;5035833;28;20095;-78
2023/08/31 08:36:12;;;;;;;3.67;1.33;;;;;;;;;;5017653;28;20045;-78
2023/08/31 08:38:38;;;;;;;5.40;1.33;;;;;;;;;;5016958;28;20077;-77
2023/08/31 08:41:06;;;;;;;4.28;1.25;;;;;;;;;;5018146;28;20038;-78
2023/08/31 08:43:33;;;;;;;4.15;1.10;;;;;;;;;;5033117;28;20429;-77
2023/08/31 08:46:02;;;;;;;3.67;1.30;;;;;;;;;;5035373;28;20445;-78
2023/08/31 08:48:28;;;;;;;4.85;1.33;;;;;;;;;;5032845;28;20064;-77
2023/08/31 08:50:55;;;;;;;5.45;1.30;;;;;;;;;;5035571;28;20445;-77
2023/08/31 08:53:21;;;;;;;4.00;1.08;;;;;;;;;;5010286;28;20052;-77
2023/08/31 08:55:47;;;;;;;4.88;1.30;;;;;;;;;;5016860;28;20041;-77
2023/08/31 08:58:13;;;;;;;3.10;1.30;;;;;;;;;;5035256;28;20042;-78
2023/08/31 09:00:40;;;;;;;1.77;1.10;;;;;;;;;;5017515;28;20041;-77
2023/08/31 09:03:06;;;;;;;2.60;1.20;;;;;;;;;;5000866;28;20045;-77
2023/08/31 09:05:33;;;;;;;2.58;1.23;;;;;;;;;;5017194;28;20053;-78
2023/08/31 09:08:13;;;;;;;2.38;1.00;;;;;;;;;;5035036;28;20096;-78
2023/08/31 09:10:45;;;;;;;2.30;1.10;;;;;;;;;;5017762;28;20057;-78
2023/08/31 09:13:12;;;;;;;3.95;1.08;;;;;;;;;;5034543;28;20041;-78
2023/08/31 09:15:41;;;;;;;3.22;1.10;;;;;;;;;;4999678;28;20046;-78
2023/08/31 09:18:08;;;;;;;2.60;1.20;;;;;;;;;;5017014;28;20060;-78
2023/08/31 09:20:44;;;;;;;3.55;1.30;;;;;;;;;;5035393;28;20132;-77
2023/08/31 09:23:10;;;;;;;3.15;1.10;;;;;;;;;;5000554;28;20053;-78
2023/08/31 09:25:42;;;;;;;3.28;1.20;;;;;;;;;;5017349;28;20092;-78
2023/08/31 09:28:08;;;;;;;2.60;1.23;;;;;;;;;;5001728;28;20046;-79
2023/08/31 09:30:37;;;;;;;1.63;0.90;;;;;;;;;;4997578;28;20053;-79
2023/08/31 09:33:05;;;;;;;2.72;1.13;;;;;;;;;;4997557;28;20375;-79
2023/08/31 09:35:31;;;;;;;1.33;0.90;;;;;;;;;;5008068;28;20394;-78
2023/08/31 09:37:57;;;;;;;1.85;1.15;;;;;;;;;;5032498;28;20515;-79
2023/08/31 09:40:24;;;;;;;3.75;0.90;;;;;;;;;;5014679;28;20111;-79
2023/08/31 09:42:52;;;;;;;2.35;0.90;;;;;;;;;;5033995;28;20041;-79
2023/08/31 09:45:25;;;;;;;2.75;1.30;;;;;;;;;;5032835;28;20033;-78
2023/08/31 09:47:51;;;;;;;3.25;1.00;;;;;;;;;;5035002;28;20045;-79
2023/08/31 09:50:18;;;;;;;2.10;1.00;;;;;;;;;;5033580;28;20049;-78
2023/08/31 09:52:44;;;;;;;3.22;1.23;;;;;;;;;;5037162;28;20044;-77
2023/08/31 09:55:11;;;;;;;3.17;1.00;;;;;;;;;;5039164;28;20045;-77
2023/08/31 09:57:38;;;;;;;2.97;0.93;;;;;;;;;;5017292;28;20076;-78
2023/08/31 10:00:04;;;;;;;2.90;1.20;;;;;;;;;;5016689;28;20045;-78
2023/08/31 10:02:31;;;;;;;2.47;1.00;;;;;;;;;;5031025;28;20037;-78
2023/08/31 10:04:58;;;;;;;4.15;1.40;;;;;;;;;;5031451;28;20065;-78
2023/08/31 10:07:27;;;;;;;2.40;1.20;;;;;;;;;;5033201;28;20478;-78
2023/08/31 10:09:53;;;;;;;4.32;1.35;;;;;;;;;;5015664;28;20450;-78
2023/08/31 10:12:20;;;;;;;4.65;1.42;;;;;;;;;;5015314;28;20045;-78
2023/08/31 10:14:48;;;;;;;5.05;1.30;;;;;;;;;;5033992;28;20124;-77
2023/08/31 10:17:14;;;;;;;2.17;1.10;;;;;;;;;;5034234;28;20559;-78
2023/08/31 10:19:41;;;;;;;2.70;1.05;;;;;;;;;;5015994;28;20398;-78
2023/08/31 10:22:07;;;;;;;3.83;1.10;;;;;;;;;;5033912;28;20044;-79
2023/08/31 10:24:52;;;;;;;7.80;1.30;;;;;;;;;;5016012;28;20045;-80
2023/08/31 10:27:21;;;;;;;2.97;1.35;;;;;;;;;;5025190;28;20052;-80
2023/08/31 10:29:47;;;;;;;6.68;1.40;;;;;;;;;;5014357;28;20042;-79
2023/08/31 10:32:18;;;;;;;4.15;1.40;;;;;;;;;;5033437;28;20041;-79
2023/08/31 10:34:46;;;;;;;2.88;1.20;;;;;;;;;;5031252;28;20100;-78
2023/08/31 10:37:23;;;;;;;2.80;1.10;;;;;;;;;;4999558;28;20130;-78
2023/08/31 10:39:49;;;;;;;2.88;1.20;;;;;;;;;;5032790;28;20042;-78
2023/08/31 10:42:15;;;;;;;2.95;1.20;;;;;;;;;;5033604;28;20125;-79
2023/08/31 10:44:45;;;;;;;4.25;1.40;;;;;;;;;;5015841;28;20049;-79
2023/08/31 10:47:12;;;;;;;2.58;1.20;;;;;;;;;;5015970;28;20049;-79
2023/08/31 10:49:38;;;;;;;3.10;1.30;;;;;;;;;;5032703;28;20060;-80
2023/08/31 10:52:18;;;;;;;3.42;1.00;;;;;;;;;;5033752;28;20053;-79
2023/08/31 10:54:44;;;;;;;2.45;1.20;;;;;;;;;;5033457;28;20402;-79
2023/08/31 10:57:12;;;;;;;3.25;1.20;;;;;;;;;;5033523;28;20103;-79
2023/08/31 10:59:45;;;;;;;5.35;1.20;;;;;;;;;;5015336;28;20059;-79
2023/08/31 11:02:28;;;;;;;4.82;1.13;;;;;;;;;;5015695;28;20453;-78
2023/08/31 11:04:55;;;;;;;2.20;1.30;;;;;;;;;;5033063;28;20129;-78
2023/08/31 11:07:25;;;;;;;4.25;1.45;;;;;;;;;;5033366;28;20049;-78
2023/08/31 11:10:10;;;;;;;3.03;1.23;;;;;;;;;;5110091;27;20400;-79
2023/08/31 11:12:36;;;;;;;3.58;1.50;;;;;;;;;;5108938;28;20040;-78
2023/08/31 11:15:06;;;;;;;4.30;1.33;;;;;;;;;;5108805;28;20097;-79
2023/08/31 11:17:32;;;;;;;1.92;0.95;;;;;;;;;;5089460;28;20044;-78
2023/08/31 11:19:59;;;;;;;2.80;1.20;;;;;;;;;;5107721;28;20044;-78
2023/08/31 11:22:25;;;;;;;3.67;1.52;;;;;;;;;;5108887;28;20043;-78
2023/08/31 11:24:51;;;;;;;5.13;1.50;;;;;;;;;;5108270;28;20123;-79
2023/08/31 11:27:21;;;;;;;3.00;1.10;;;;;;;;;;5100800;28;20052;-78
2023/08/31 11:29:47;;;;;;;3.55;1.30;;;;;;;;;;5104919;28;20048;-78
2023/08/31 11:32:13;;;;;;;3.60;1.30;;;;;;;;;;5089585;28;20381;-78
2023/08/31 11:34:44;;;;;;;3.35;1.33;;;;;;;;;;5104772;28;20083;-80
2023/08/31 11:37:11;;;;;;;5.32;1.40;;;;;;;;;;5105180;28;20063;-79
2023/08/31 11:39:39;;;;;;;4.35;1.45;;;;;;;;;;5104889;28;20036;-79
2023/08/31 11:42:05;;;;;;;3.50;1.40;;;;;;;;;;5087969;28;20044;-79
2023/08/31 11:44:32;;;;;;;3.30;1.45;;;;;;;;;;5088888;28;20434;-78
2023/08/31 11:46:58;;;;;;;4.10;1.20;;;;;;;;;;5105034;28;20327;-78
2023/08/31 11:49:25;;;;;;;4.90;1.40;;;;;;;;;;5104714;28;20044;-78
2023/08/31 11:51:51;;;;;;;3.38;1.30;;;;;;;;;;5089077;28;20044;-78
2023/08/31 11:54:17;;;;;;;3.05;1.20;;;;;;;;;;5087921;28;20128;-78
2023/08/31 11:56:46;;;;;;;5.10;1.63;;;;;;;;;;5103869;28;20044;-77
2023/08/31 11:59:12;;;;;;;4.97;1.60;;;;;;;;;;5104355;28;20114;-79
2023/08/31 12:01:39;;;;;;;6.90;1.88;;;;;;;;;;5089123;28;20097;-78
2023/08/31 12:04:25;;;;;;;3.47;1.40;;;;;;;;;;5088461;28;20050;-78
2023/08/31 12:06:51;;;;;;;4.43;1.33;;;;;;;;;;5104584;28;20058;-78
2023/08/31 12:09:18;;;;;;;5.35;1.33;;;;;;;;;;5103867;28;20070;-78
2023/08/31 12:11:51;;;;;;;4.30;1.55;;;;;;;;;;5088877;28;20123;-79
2023/08/31 12:14:24;;;;;;;4.40;1.50;;;;;;;;;;5088587;28;20127;-78
2023/08/31 12:16:51;;;;;;;4.55;1.30;;;;;;;;;;5088790;28;20046;-78
2023/08/31 12:19:17;;;;;;;3.83;1.60;;;;;;;;;;5102599;28;20040;-78
2023/08/31 12:21:49;;;;;;;3.40;1.40;;;;;;;;;;5075170;28;20070;-78
2023/08/31 12:24:16;;;;;;;2.95;1.33;;;;;;;;;;5090185;28;20044;-77
2023/08/31 12:26:43;;;;;;;3.38;1.40;;;;;;;;;;5090014;28;20049;-78
2023/08/31 12:29:09;;;;;;;3.38;1.42;;;;;;;;;;5074129;28;20051;-77
2023/08/31 12:31:36;;;;;;;3.83;1.40;;;;;;;;;;5072220;28;20452;-77
2023/08/31 12:34:06;;;;;;;3.03;1.40;;;;;;;;;;5074325;28;20045;-77
2023/08/31 12:36:32;;;;;;;3.38;1.50;;;;;;;;;;5090388;28;20040;-78
2023/08/31 12:39:01;;;;;;;5.45;1.70;;;;;;;;;;5090153;28;20147;-79
2023/08/31 12:41:28;;;;;;;5.22;1.60;;;;;;;;;;5074555;28;20045;-78
2023/08/31 12:43:54;;;;;;;5.30;1.60;;;;;;;;;;5090163;28;20105;-78
2023/08/31 12:46:20;;;;;;;6.72;1.65;;;;;;;;;;5073460;28;20037;-77
2023/08/31 12:48:48;;;;;;;4.35;1.60;;;;;;;;;;5087197;28;20052;-77
2023/08/31 12:51:14;;;;;;;4.13;1.42;;;;;;;;;;5089583;28;20059;-77
2023/08/31 12:53:40;;;;;;;6.53;1.55;;;;;;;;;;5072442;28;20080;-78
2023/08/31 12:56:06;;;;;;;4.38;1.60;;;;;;;;;;5071978;28;20049;-78
2023/08/31 12:58:32;;;;;;;3.92;1.50;;;;;;;;;;5071340;28;20048;-78
2023/08/31 13:00:59;;;;;;;3.20;1.42;;;;;;;;;;5073426;28;20505;-78
2023/08/31 13:03:25;;;;;;;4.38;1.50;;;;;;;;;;5074110;28;20480;-77
2023/08/31 13:05:51;;;;;;;3.65;1.33;;;;;;;;;;5074088;28;20052;-78
2023/08/31 13:08:18;;;;;;;5.20;1.50;;;;;;;;;;5072951;28;20052;-77
2023/08/31 13:10:44;;;;;;;2.78;1.40;;;;;;;;;;5089998;28;20056;-76
2023/08/31 13:13:10;;;;;;;5.15;1.55;;;;;;;;;;5077268;28;20497;-75
2023/08/31 13:15:36;;;;;;;4.75;1.60;;;;;;;;;;5092807;28;20032;-75
2023/08/31 13:18:02;;;;;;;4.30;1.33;;;;;;;;;;5094170;28;20101;-75
2023/08/31 13:20:28;;;;;;;4.63;1.45;;;;;;;;;;5093674;28;20424;-75
2023/08/31 13:22:54;;;;;;;4.18;1.50;;;;;;;;;;5109135;28;20109;-75
2023/08/31 13:25:20;;;;;;;3.25;1.35;;;;;;;;;;5094273;28;20442;-75
2023/08/31 13:27:46;;;;;;;3.80;1.63;;;;;;;;;;5091915;28;20051;-75
2023/08/31 13:30:12;;;;;;;5.32;1.40;;;;;;;;;;5093090;28;20051;-75
2023/08/31 13:32:38;;;;;;;4.93;1.50;;;;;;;;;;5090697;28;20433;-75
2023/08/31 13:35:08;;;;;;;5.80;1.42;;;;;;;;;;5093688;28;20043;-76
2023/08/31 13:37:34;;;;;;;3.53;1.40;;;;;;;;;;5093666;28;20422;-76
2023/08/31 13:40:01;;;;;;;3.30;1.30;;;;;;;;;;5092113;28;20388;-75
2023/08/31 13:42:27;;;;;;;4.93;1.50;;;;;;;;;;5093673;28;20051;-76
2023/08/31 13:44:53;;;;;;;5.50;1.50;;;;;;;;;;5092214;28;20101;-76
2023/08/31 13:47:19;;;;;;;4.43;1.50;;;;;;;;;;5084401;28;20120;-75
2023/08/31 13:49:45;;;;;;;4.40;1.40;;;;;;;;;;5071661;28;20131;-75
2023/08/31 13:52:11;;;;;;;6.53;1.58;;;;;;;;;;5071597;28;20545;-75
2023/08/31 13:54:37;;;;;;;4.18;1.60;;;;;;;;;;5091370;28;20515;-76
2023/08/31 13:57:04;;;;;;;5.15;1.50;;;;;;;;;;5093329;28;20450;-77
2023/08/31 13:59:30;;;;;;;3.35;1.27;;;;;;;;;;5093350;28;20044;-76
2023/08/31 14:01:56;;;;;;;5.10;1.23;;;;;;;;;;5093042;28;20178;-77
2023/08/31 14:04:22;;;;;;;5.22;1.42;;;;;;;;;;5091145;28;20036;-76
2023/08/31 14:06:48;;;;;;;3.78;1.50;;;;;;;;;;5091995;28;20040;-75
2023/08/31 14:09:15;;;;;;;3.67;1.52;;;;;;;;;;5092498;28;20052;-76
2023/08/31 14:11:41;;;;;;;3.40;1.30;;;;;;;;;;5091914;28;20043;-75
2023/08/31 14:14:10;;;;;;;3.97;1.30;;;;;;;;;;5092625;28;20044;-75
2023/08/31 14:16:37;;;;;;;5.78;1.50;;;;;;;;;;5093124;28;20102;-75
2023/08/31 14:19:04;;;;;;;3.58;1.40;;;;;;;;;;5091484;28;20040;-76
2023/08/31 14:21:30;;;;;;;3.90;1.52;;;;;;;;;;5092863;28;20044;-76
2023/08/31 14:23:57;;;;;;;4.32;1.60;;;;;;;;;;5091145;28;20039;-76
2023/08/31 14:26:23;;;;;;;6.32;1.88;;;;;;;;;;5091819;28;20151;-76
2023/08/31 14:28:51;;;;;;;5.03;1.90;;;;;;;;;;5071091;28;20505;-76
2023/08/31 14:31:17;;;;;;;5.55;1.77;;;;;;;;;;5072394;28;20327;-75
2023/08/31 14:33:43;;;;;;;5.25;1.77;;;;;;;;;;5087804;28;20092;-75
2023/08/31 14:36:09;;;;;;;8.02;2.05;;;;;;;;;;5072194;28;20047;-75
2023/08/31 14:38:35;;;;;;;4.70;1.80;;;;;;;;;;5083243;28;20055;-75
2023/08/31 14:41:01;;;;;;;6.13;1.88;;;;;;;;;;5091908;28;20050;-75
2023/08/31 14:43:28;;;;;;;5.50;1.70;;;;;;;;;;5075898;28;20052;-75